sensor_id;sensor_type;location;lat;lon;timestamp;P1;durP1;ratioP1;P2;durP2;ratioP2
19149;SDS011;9707;49.158;8.632;2023-02-15T00:01:18;22.80;;;15.38;;
19149;SDS011;9707;49.158;8.632;2023-02-15T00:03:43;23.20;;;14.90;;
19149;SDS011;9707;49.158;8.632;2023-02-15T00:06:09;24.35;;;15.40;;
19149;SDS011;9707;49.158;8.632;2023-02-15T00:08:34;24.35;;;15.18;;
19149;SDS011;9707;49.158;8.632;2023-02-15T00:11:12;23.40;;;16.10;;
19149;SDS011;9707;49.158;8.632;2023-02-15T00:13:40;23.52;;;14.93;;
19149;SDS011;9707;49.158;8.632;2023-02-15T00:16:09;24.45;;;15.63;;
19149;SDS011;9707;49.158;8.632;2023-02-15T00:18:36;28.70;;;16.88;;
19149;SDS011;9707;49.158;8.632;2023-02-15T00:21:03;24.77;;;15.02;;
19149;SDS011;9707;49.158;8.632;2023-02-15T00:23:33;22.75;;;13.93;;
19149;SDS011;9707;49.158;8.632;2023-02-15T00:26:11;21.98;;;15.07;;
19149;SDS011;9707;49.158;8.632;2023-02-15T00:28:37;22.85;;;13.48;;
19149;SDS011;9707;49.158;8.632;2023-02-15T00:31:06;25.15;;;14.18;;
19149;SDS011;9707;49.158;8.632;2023-02-15T00:33:35;22.33;;;14.02;;
19149;SDS011;9707;49.158;8.632;2023-02-15T00:36:02;21.30;;;14.00;;
19149;SDS011;9707;49.158;8.632;2023-02-15T00:38:29;22.38;;;14.80;;
19149;SDS011;9707;49.158;8.632;2023-02-15T00:40:56;21.15;;;14.50;;
19149;SDS011;9707;49.158;8.632;2023-02-15T00:43:23;22.58;;;14.20;;
19149;SDS011;9707;49.158;8.632;2023-02-15T00:45:48;23.73;;;14.77;;
19149;SDS011;9707;49.158;8.632;2023-02-15T00:48:14;19.15;;;13.60;;
19149;SDS011;9707;49.158;8.632;2023-02-15T00:50:39;21.42;;;14.73;;
19149;SDS011;9707;49.158;8.632;2023-02-15T00:53:04;20.40;;;13.80;;
19149;SDS011;9707;49.158;8.632;2023-02-15T00:55:30;22.55;;;14.40;;
19149;SDS011;9707;49.158;8.632;2023-02-15T00:57:55;19.77;;;13.73;;
19149;SDS011;9707;49.158;8.632;2023-02-15T01:00:20;21.65;;;14.77;;
19149;SDS011;9707;49.158;8.632;2023-02-15T01:02:46;25.00;;;14.38;;
19149;SDS011;9707;49.158;8.632;2023-02-15T01:05:11;19.67;;;13.45;;
19149;SDS011;9707;49.158;8.632;2023-02-15T01:07:37;19.60;;;13.60;;
19149;SDS011;9707;49.158;8.632;2023-02-15T01:10:03;20.83;;;13.52;;
19149;SDS011;9707;49.158;8.632;2023-02-15T01:12:30;19.80;;;13.32;;
19149;SDS011;9707;49.158;8.632;2023-02-15T01:14:55;20.17;;;13.40;;
19149;SDS011;9707;49.158;8.632;2023-02-15T01:17:20;19.90;;;13.18;;
19149;SDS011;9707;49.158;8.632;2023-02-15T01:19:46;19.73;;;13.05;;
19149;SDS011;9707;49.158;8.632;2023-02-15T01:22:11;20.15;;;13.55;;
19149;SDS011;9707;49.158;8.632;2023-02-15T01:24:36;17.98;;;12.55;;
19149;SDS011;9707;49.158;8.632;2023-02-15T01:27:04;18.33;;;12.07;;
19149;SDS011;9707;49.158;8.632;2023-02-15T01:29:29;19.95;;;12.68;;
19149;SDS011;9707;49.158;8.632;2023-02-15T01:31:54;17.48;;;11.88;;
19149;SDS011;9707;49.158;8.632;2023-02-15T01:34:20;17.50;;;11.50;;
19149;SDS011;9707;49.158;8.632;2023-02-15T01:36:45;15.80;;;10.82;;
19149;SDS011;9707;49.158;8.632;2023-02-15T01:39:10;15.07;;;10.20;;
19149;SDS011;9707;49.158;8.632;2023-02-15T01:41:36;15.80;;;11.38;;
19149;SDS011;9707;49.158;8.632;2023-02-15T01:44:03;16.67;;;11.57;;
19149;SDS011;9707;49.158;8.632;2023-02-15T01:47:07;15.10;;;10.65;;
19149;SDS011;9707;49.158;8.632;2023-02-15T01:49:36;14.80;;;10.30;;
19149;SDS011;9707;49.158;8.632;2023-02-15T01:52:06;15.98;;;11.38;;
19149;SDS011;9707;49.158;8.632;2023-02-15T01:54:33;16.48;;;10.98;;
19149;SDS011;9707;49.158;8.632;2023-02-15T01:57:02;15.65;;;10.77;;
19149;SDS011;9707;49.158;8.632;2023-02-15T01:59:29;14.95;;;10.90;;
19149;SDS011;9707;49.158;8.632;2023-02-15T02:01:58;14.70;;;10.30;;
19149;SDS011;9707;49.158;8.632;2023-02-15T02:04:29;12.57;;;9.70;;
19149;SDS011;9707;49.158;8.632;2023-02-15T02:07:00;12.80;;;8.85;;
19149;SDS011;9707;49.158;8.632;2023-02-15T02:09:29;15.82;;;10.27;;
19149;SDS011;9707;49.158;8.632;2023-02-15T02:11:55;15.82;;;11.25;;
19149;SDS011;9707;49.158;8.632;2023-02-15T02:14:20;12.05;;;9.07;;
19149;SDS011;9707;49.158;8.632;2023-02-15T02:27:56;13.93;;;9.88;;
19149;SDS011;9707;49.158;8.632;2023-02-15T02:33:39;13.50;;;9.50;;
19149;SDS011;9707;49.158;8.632;2023-02-15T02:36:22;16.17;;;10.55;;
19149;SDS011;9707;49.158;8.632;2023-02-15T02:44:43;14.80;;;10.15;;
19149;SDS011;9707;49.158;8.632;2023-02-15T02:49:51;14.95;;;10.23;;
19149;SDS011;9707;49.158;8.632;2023-02-15T02:55:09;11.40;;;7.28;;
19149;SDS011;9707;49.158;8.632;2023-02-15T02:57:39;12.77;;;8.82;;
19149;SDS011;9707;49.158;8.632;2023-02-15T03:00:08;11.55;;;7.93;;
19149;SDS011;9707;49.158;8.632;2023-02-15T03:02:37;14.10;;;9.88;;
19149;SDS011;9707;49.158;8.632;2023-02-15T03:05:08;12.65;;;8.15;;
19149;SDS011;9707;49.158;8.632;2023-02-15T03:07:39;12.23;;;7.10;;
19149;SDS011;9707;49.158;8.632;2023-02-15T03:10:07;13.13;;;8.93;;
19149;SDS011;9707;49.158;8.632;2023-02-15T03:12:34;13.63;;;9.15;;
19149;SDS011;9707;49.158;8.632;2023-02-15T03:15:06;13.15;;;9.57;;
19149;SDS011;9707;49.158;8.632;2023-02-15T03:17:37;12.25;;;9.15;;
19149;SDS011;9707;49.158;8.632;2023-02-15T03:20:29;14.07;;;8.95;;
19149;SDS011;9707;49.158;8.632;2023-02-15T03:22:59;14.27;;;9.18;;
19149;SDS011;9707;49.158;8.632;2023-02-15T03:25:32;8.73;;;6.05;;
19149;SDS011;9707;49.158;8.632;2023-02-15T03:28:05;12.93;;;9.35;;
19149;SDS011;9707;49.158;8.632;2023-02-15T03:30:33;12.00;;;9.02;;
19149;SDS011;9707;49.158;8.632;2023-02-15T03:33:00;13.43;;;9.40;;
19149;SDS011;9707;49.158;8.632;2023-02-15T03:35:31;10.68;;;8.07;;
19149;SDS011;9707;49.158;8.632;2023-02-15T03:38:02;9.02;;;6.47;;
19149;SDS011;9707;49.158;8.632;2023-02-15T03:40:32;13.98;;;9.23;;
19149;SDS011;9707;49.158;8.632;2023-02-15T03:43:26;10.82;;;8.63;;
19149;SDS011;9707;49.158;8.632;2023-02-15T03:45:59;11.85;;;8.85;;
19149;SDS011;9707;49.158;8.632;2023-02-15T03:48:33;12.27;;;8.77;;
19149;SDS011;9707;49.158;8.632;2023-02-15T03:51:04;12.48;;;8.93;;
19149;SDS011;9707;49.158;8.632;2023-02-15T03:53:51;13.18;;;9.57;;
19149;SDS011;9707;49.158;8.632;2023-02-15T03:56:20;12.98;;;9.02;;
19149;SDS011;9707;49.158;8.632;2023-02-15T03:58:46;13.98;;;9.60;;
19149;SDS011;9707;49.158;8.632;2023-02-15T04:01:34;13.15;;;8.80;;
19149;SDS011;9707;49.158;8.632;2023-02-15T04:04:38;12.10;;;9.05;;
19149;SDS011;9707;49.158;8.632;2023-02-15T04:07:07;14.13;;;9.57;;
19149;SDS011;9707;49.158;8.632;2023-02-15T04:09:33;11.90;;;9.07;;
19149;SDS011;9707;49.158;8.632;2023-02-15T04:12:17;10.98;;;8.23;;
19149;SDS011;9707;49.158;8.632;2023-02-15T04:14:42;11.98;;;8.60;;
19149;SDS011;9707;49.158;8.632;2023-02-15T04:17:27;12.45;;;9.07;;
19149;SDS011;9707;49.158;8.632;2023-02-15T04:19:52;11.10;;;8.80;;
19149;SDS011;9707;49.158;8.632;2023-02-15T04:22:36;10.70;;;7.63;;
19149;SDS011;9707;49.158;8.632;2023-02-15T04:25:23;10.80;;;8.43;;
19149;SDS011;9707;49.158;8.632;2023-02-15T04:27:50;11.57;;;9.00;;
19149;SDS011;9707;49.158;8.632;2023-02-15T04:30:19;13.13;;;9.40;;
19149;SDS011;9707;49.158;8.632;2023-02-15T04:32:46;11.88;;;8.80;;
19149;SDS011;9707;49.158;8.632;2023-02-15T04:35:12;11.40;;;8.50;;
19149;SDS011;9707;49.158;8.632;2023-02-15T04:37:38;9.27;;;6.30;;
19149;SDS011;9707;49.158;8.632;2023-02-15T04:40:04;11.65;;;8.38;;
19149;SDS011;9707;49.158;8.632;2023-02-15T04:42:33;9.73;;;7.60;;
19149;SDS011;9707;49.158;8.632;2023-02-15T04:44:58;11.18;;;8.57;;
19149;SDS011;9707;49.158;8.632;2023-02-15T04:47:24;11.32;;;8.23;;
19149;SDS011;9707;49.158;8.632;2023-02-15T04:49:49;10.30;;;7.22;;
19149;SDS011;9707;49.158;8.632;2023-02-15T04:52:15;12.23;;;8.65;;
19149;SDS011;9707;49.158;8.632;2023-02-15T04:54:42;10.13;;;7.63;;
19149;SDS011;9707;49.158;8.632;2023-02-15T04:57:07;10.98;;;8.18;;
19149;SDS011;9707;49.158;8.632;2023-02-15T04:59:32;11.50;;;8.15;;
19149;SDS011;9707;49.158;8.632;2023-02-15T05:01:58;11.52;;;8.82;;
19149;SDS011;9707;49.158;8.632;2023-02-15T05:04:23;9.13;;;6.18;;
19149;SDS011;9707;49.158;8.632;2023-02-15T05:06:48;12.32;;;8.20;;
19149;SDS011;9707;49.158;8.632;2023-02-15T05:09:14;12.65;;;8.95;;
19149;SDS011;9707;49.158;8.632;2023-02-15T05:11:39;12.88;;;9.05;;
19149;SDS011;9707;49.158;8.632;2023-02-15T05:14:04;12.60;;;9.50;;
19149;SDS011;9707;49.158;8.632;2023-02-15T05:16:30;13.73;;;9.52;;
19149;SDS011;9707;49.158;8.632;2023-02-15T05:18:56;12.90;;;8.95;;
19149;SDS011;9707;49.158;8.632;2023-02-15T05:21:21;13.95;;;10.15;;
19149;SDS011;9707;49.158;8.632;2023-02-15T05:23:47;10.88;;;7.45;;
19149;SDS011;9707;49.158;8.632;2023-02-15T05:26:13;14.23;;;9.38;;
19149;SDS011;9707;49.158;8.632;2023-02-15T05:29:02;12.55;;;10.10;;
19149;SDS011;9707;49.158;8.632;2023-02-15T05:31:28;12.48;;;9.15;;
19149;SDS011;9707;49.158;8.632;2023-02-15T05:33:54;12.30;;;9.00;;
19149;SDS011;9707;49.158;8.632;2023-02-15T05:36:19;13.23;;;9.27;;
19149;SDS011;9707;49.158;8.632;2023-02-15T05:38:44;11.82;;;9.40;;
19149;SDS011;9707;49.158;8.632;2023-02-15T05:41:10;13.38;;;9.13;;
19149;SDS011;9707;49.158;8.632;2023-02-15T05:43:36;13.07;;;9.40;;
19149;SDS011;9707;49.158;8.632;2023-02-15T05:46:02;10.57;;;8.60;;
19149;SDS011;9707;49.158;8.632;2023-02-15T05:48:28;14.95;;;10.65;;
19149;SDS011;9707;49.158;8.632;2023-02-15T05:53:28;14.88;;;10.38;;
19149;SDS011;9707;49.158;8.632;2023-02-15T05:55:55;15.10;;;10.48;;
19149;SDS011;9707;49.158;8.632;2023-02-15T05:58:24;14.18;;;9.52;;
19149;SDS011;9707;49.158;8.632;2023-02-15T06:00:50;13.43;;;9.18;;
19149;SDS011;9707;49.158;8.632;2023-02-15T06:03:16;14.68;;;9.93;;
19149;SDS011;9707;49.158;8.632;2023-02-15T06:05:41;13.73;;;9.68;;
19149;SDS011;9707;49.158;8.632;2023-02-15T06:08:06;14.05;;;9.48;;
19149;SDS011;9707;49.158;8.632;2023-02-15T06:10:32;16.73;;;10.73;;
19149;SDS011;9707;49.158;8.632;2023-02-15T06:12:57;13.88;;;10.00;;
19149;SDS011;9707;49.158;8.632;2023-02-15T06:15:22;12.02;;;8.65;;
19149;SDS011;9707;49.158;8.632;2023-02-15T06:17:47;14.30;;;9.95;;
19149;SDS011;9707;49.158;8.632;2023-02-15T06:20:13;11.85;;;8.77;;
19149;SDS011;9707;49.158;8.632;2023-02-15T06:22:38;13.60;;;9.70;;
19149;SDS011;9707;49.158;8.632;2023-02-15T06:25:03;9.93;;;8.07;;
19149;SDS011;9707;49.158;8.632;2023-02-15T06:27:29;10.77;;;8.30;;
19149;SDS011;9707;49.158;8.632;2023-02-15T06:29:54;12.27;;;8.32;;
19149;SDS011;9707;49.158;8.632;2023-02-15T06:32:19;10.63;;;7.43;;
19149;SDS011;9707;49.158;8.632;2023-02-15T06:34:45;12.05;;;7.75;;
19149;SDS011;9707;49.158;8.632;2023-02-15T06:37:10;9.40;;;7.03;;
19149;SDS011;9707;49.158;8.632;2023-02-15T06:39:35;10.52;;;8.63;;
19149;SDS011;9707;49.158;8.632;2023-02-15T06:42:01;10.68;;;7.97;;
19149;SDS011;9707;49.158;8.632;2023-02-15T06:44:26;13.43;;;8.55;;
19149;SDS011;9707;49.158;8.632;2023-02-15T06:46:51;10.90;;;8.25;;
19149;SDS011;9707;49.158;8.632;2023-02-15T06:49:16;11.60;;;8.68;;
19149;SDS011;9707;49.158;8.632;2023-02-15T06:51:42;12.50;;;8.98;;
19149;SDS011;9707;49.158;8.632;2023-02-15T06:54:07;10.95;;;8.77;;
19149;SDS011;9707;49.158;8.632;2023-02-15T06:56:32;11.90;;;9.10;;
19149;SDS011;9707;49.158;8.632;2023-02-15T06:58:58;12.75;;;8.90;;
19149;SDS011;9707;49.158;8.632;2023-02-15T07:01:23;12.10;;;8.57;;
19149;SDS011;9707;49.158;8.632;2023-02-15T07:03:49;12.00;;;8.60;;
19149;SDS011;9707;49.158;8.632;2023-02-15T07:06:16;11.43;;;7.93;;
19149;SDS011;9707;49.158;8.632;2023-02-15T07:08:44;12.20;;;8.95;;
19149;SDS011;9707;49.158;8.632;2023-02-15T07:11:09;12.63;;;9.25;;
19149;SDS011;9707;49.158;8.632;2023-02-15T07:13:53;12.10;;;9.27;;
19149;SDS011;9707;49.158;8.632;2023-02-15T07:16:18;12.57;;;9.18;;
19149;SDS011;9707;49.158;8.632;2023-02-15T07:18:44;14.25;;;8.93;;
19149;SDS011;9707;49.158;8.632;2023-02-15T07:21:09;12.60;;;9.25;;
19149;SDS011;9707;49.158;8.632;2023-02-15T07:23:39;11.18;;;8.48;;
19149;SDS011;9707;49.158;8.632;2023-02-15T07:26:05;13.05;;;8.98;;
19149;SDS011;9707;49.158;8.632;2023-02-15T07:28:32;11.65;;;8.43;;
19149;SDS011;9707;49.158;8.632;2023-02-15T07:31:01;14.07;;;9.00;;
19149;SDS011;9707;49.158;8.632;2023-02-15T07:33:30;13.68;;;9.60;;
19149;SDS011;9707;49.158;8.632;2023-02-15T07:35:57;12.27;;;8.68;;
19149;SDS011;9707;49.158;8.632;2023-02-15T07:38:25;11.07;;;8.07;;
19149;SDS011;9707;49.158;8.632;2023-02-15T07:40:51;11.02;;;8.00;;
19149;SDS011;9707;49.158;8.632;2023-02-15T07:43:22;10.68;;;7.57;;
19149;SDS011;9707;49.158;8.632;2023-02-15T07:45:47;11.50;;;8.00;;
19149;SDS011;9707;49.158;8.632;2023-02-15T07:48:12;10.32;;;7.82;;
19149;SDS011;9707;49.158;8.632;2023-02-15T07:50:38;11.38;;;8.10;;
19149;SDS011;9707;49.158;8.632;2023-02-15T07:53:03;11.43;;;8.57;;
19149;SDS011;9707;49.158;8.632;2023-02-15T07:55:29;12.40;;;9.70;;
19149;SDS011;9707;49.158;8.632;2023-02-15T07:57:54;10.70;;;7.97;;
19149;SDS011;9707;49.158;8.632;2023-02-15T08:00:20;10.25;;;7.32;;
19149;SDS011;9707;49.158;8.632;2023-02-15T08:02:53;11.18;;;8.13;;
19149;SDS011;9707;49.158;8.632;2023-02-15T08:05:38;12.30;;;8.13;;
19149;SDS011;9707;49.158;8.632;2023-02-15T08:08:04;10.20;;;7.70;;
19149;SDS011;9707;49.158;8.632;2023-02-15T08:10:30;10.30;;;7.45;;
19149;SDS011;9707;49.158;8.632;2023-02-15T08:13:15;11.35;;;7.80;;
19149;SDS011;9707;49.158;8.632;2023-02-15T08:15:47;10.63;;;8.13;;
19149;SDS011;9707;49.158;8.632;2023-02-15T08:18:13;11.50;;;6.95;;
19149;SDS011;9707;49.158;8.632;2023-02-15T08:20:38;10.55;;;7.45;;
19149;SDS011;9707;49.158;8.632;2023-02-15T08:23:03;9.35;;;7.10;;
19149;SDS011;9707;49.158;8.632;2023-02-15T08:25:28;10.70;;;7.40;;
19149;SDS011;9707;49.158;8.632;2023-02-15T08:27:54;8.55;;;7.25;;
19149;SDS011;9707;49.158;8.632;2023-02-15T08:30:19;10.18;;;7.97;;
19149;SDS011;9707;49.158;8.632;2023-02-15T08:32:44;10.65;;;7.68;;
19149;SDS011;9707;49.158;8.632;2023-02-15T08:35:09;10.07;;;7.60;;
19149;SDS011;9707;49.158;8.632;2023-02-15T08:37:35;9.50;;;7.28;;
19149;SDS011;9707;49.158;8.632;2023-02-15T08:40:00;11.75;;;7.53;;
19149;SDS011;9707;49.158;8.632;2023-02-15T08:42:25;10.45;;;7.90;;
19149;SDS011;9707;49.158;8.632;2023-02-15T08:44:50;10.48;;;7.20;;
19149;SDS011;9707;49.158;8.632;2023-02-15T08:47:16;11.55;;;7.68;;
19149;SDS011;9707;49.158;8.632;2023-02-15T08:49:41;9.88;;;7.95;;
19149;SDS011;9707;49.158;8.632;2023-02-15T08:52:07;10.32;;;7.65;;
19149;SDS011;9707;49.158;8.632;2023-02-15T08:54:32;10.48;;;7.57;;
19149;SDS011;9707;49.158;8.632;2023-02-15T08:56:57;8.98;;;6.35;;
19149;SDS011;9707;49.158;8.632;2023-02-15T08:59:23;11.85;;;7.45;;
19149;SDS011;9707;49.158;8.632;2023-02-15T09:01:51;15.68;;;7.63;;
19149;SDS011;9707;49.158;8.632;2023-02-15T09:04:18;12.13;;;8.23;;
19149;SDS011;9707;49.158;8.632;2023-02-15T09:06:46;11.43;;;8.70;;
19149;SDS011;9707;49.158;8.632;2023-02-15T09:09:12;14.00;;;8.07;;
19149;SDS011;9707;49.158;8.632;2023-02-15T09:11:41;11.85;;;8.82;;
19149;SDS011;9707;49.158;8.632;2023-02-15T09:14:08;7.55;;;6.32;;
19149;SDS011;9707;49.158;8.632;2023-02-15T09:16:39;9.00;;;6.97;;
19149;SDS011;9707;49.158;8.632;2023-02-15T09:19:06;10.05;;;7.97;;
19149;SDS011;9707;49.158;8.632;2023-02-15T09:21:35;9.60;;;7.43;;
19149;SDS011;9707;49.158;8.632;2023-02-15T09:24:03;8.40;;;6.60;;
19149;SDS011;9707;49.158;8.632;2023-02-15T09:26:31;10.00;;;7.35;;
19149;SDS011;9707;49.158;8.632;2023-02-15T09:28:59;10.50;;;7.57;;
19149;SDS011;9707;49.158;8.632;2023-02-15T09:31:27;9.82;;;7.65;;
19149;SDS011;9707;49.158;8.632;2023-02-15T09:33:54;11.52;;;8.68;;
19149;SDS011;9707;49.158;8.632;2023-02-15T09:36:21;15.43;;;8.73;;
19149;SDS011;9707;49.158;8.632;2023-02-15T09:41:44;11.13;;;7.88;;
19149;SDS011;9707;49.158;8.632;2023-02-15T09:52:07;11.73;;;8.70;;
19149;SDS011;9707;49.158;8.632;2023-02-15T10:00:30;10.50;;;8.10;;
19149;SDS011;9707;49.158;8.632;2023-02-15T10:06:14;14.82;;;10.30;;
19149;SDS011;9707;49.158;8.632;2023-02-15T10:17:36;17.40;;;12.00;;
19149;SDS011;9707;49.158;8.632;2023-02-15T10:28:43;12.50;;;9.13;;
19149;SDS011;9707;49.158;8.632;2023-02-15T10:31:24;13.82;;;9.68;;
19149;SDS011;9707;49.158;8.632;2023-02-15T10:34:06;12.60;;;9.45;;
19149;SDS011;9707;49.158;8.632;2023-02-15T10:36:48;12.73;;;9.57;;
19149;SDS011;9707;49.158;8.632;2023-02-15T10:39:33;13.60;;;9.57;;
19149;SDS011;9707;49.158;8.632;2023-02-15T10:42:46;11.75;;;9.18;;
19149;SDS011;9707;49.158;8.632;2023-02-15T11:01:31;12.75;;;9.15;;
19149;SDS011;9707;49.158;8.632;2023-02-15T11:06:57;11.38;;;8.68;;
19149;SDS011;9707;49.158;8.632;2023-02-15T11:09:29;13.20;;;9.77;;
19149;SDS011;9707;49.158;8.632;2023-02-15T11:12:03;17.60;;;10.40;;
19149;SDS011;9707;49.158;8.632;2023-02-15T11:14:51;11.55;;;8.98;;
19149;SDS011;9707;49.158;8.632;2023-02-15T11:17:33;12.05;;;8.70;;
19149;SDS011;9707;49.158;8.632;2023-02-15T11:20:17;10.55;;;7.97;;
19149;SDS011;9707;49.158;8.632;2023-02-15T11:22:53;11.88;;;9.52;;
19149;SDS011;9707;49.158;8.632;2023-02-15T11:25:20;13.27;;;9.88;;
19149;SDS011;9707;49.158;8.632;2023-02-15T11:27:50;14.93;;;9.60;;
19149;SDS011;9707;49.158;8.632;2023-02-15T11:30:20;10.25;;;7.75;;
19149;SDS011;9707;49.158;8.632;2023-02-15T11:32:49;12.50;;;9.52;;
19149;SDS011;9707;49.158;8.632;2023-02-15T11:40:59;12.75;;;9.77;;
19149;SDS011;9707;49.158;8.632;2023-02-15T11:46:15;14.10;;;9.27;;
19149;SDS011;9707;49.158;8.632;2023-02-15T11:48:40;14.18;;;10.05;;
19149;SDS011;9707;49.158;8.632;2023-02-15T11:51:14;13.57;;;10.35;;
19149;SDS011;9707;49.158;8.632;2023-02-15T11:53:43;14.93;;;10.00;;
19149;SDS011;9707;49.158;8.632;2023-02-15T11:56:14;14.55;;;10.38;;
19149;SDS011;9707;49.158;8.632;2023-02-15T11:58:49;10.60;;;8.32;;
19149;SDS011;9707;49.158;8.632;2023-02-15T12:06:41;15.32;;;9.57;;
19149;SDS011;9707;49.158;8.632;2023-02-15T12:11:55;16.88;;;12.45;;
19149;SDS011;9707;49.158;8.632;2023-02-15T12:14:54;16.65;;;12.45;;
19149;SDS011;9707;49.158;8.632;2023-02-15T12:17:21;16.17;;;10.73;;
19149;SDS011;9707;49.158;8.632;2023-02-15T12:19:49;14.65;;;10.10;;
19149;SDS011;9707;49.158;8.632;2023-02-15T12:22:19;11.50;;;9.18;;
19149;SDS011;9707;49.158;8.632;2023-02-15T12:24:48;9.48;;;6.95;;
19149;SDS011;9707;49.158;8.632;2023-02-15T12:27:19;12.90;;;8.88;;
19149;SDS011;9707;49.158;8.632;2023-02-15T12:29:48;15.18;;;10.70;;
19149;SDS011;9707;49.158;8.632;2023-02-15T12:32:22;14.93;;;10.98;;
19149;SDS011;9707;49.158;8.632;2023-02-15T12:34:50;12.65;;;8.52;;
19149;SDS011;9707;49.158;8.632;2023-02-15T12:37:23;15.48;;;11.07;;
19149;SDS011;9707;49.158;8.632;2023-02-15T12:39:55;14.68;;;10.48;;
19149;SDS011;9707;49.158;8.632;2023-02-15T12:42:22;13.25;;;10.95;;
19149;SDS011;9707;49.158;8.632;2023-02-15T12:45:03;15.40;;;11.10;;
19149;SDS011;9707;49.158;8.632;2023-02-15T12:47:44;12.57;;;9.02;;
19149;SDS011;9707;49.158;8.632;2023-02-15T12:50:14;15.63;;;10.52;;
19149;SDS011;9707;49.158;8.632;2023-02-15T12:52:47;15.65;;;11.45;;
19149;SDS011;9707;49.158;8.632;2023-02-15T13:00:43;18.00;;;15.82;;
19149;SDS011;9707;49.158;8.632;2023-02-15T13:03:19;16.38;;;11.77;;
19149;SDS011;9707;49.158;8.632;2023-02-15T13:05:50;14.82;;;9.52;;
19149;SDS011;9707;49.158;8.632;2023-02-15T13:08:21;16.92;;;12.15;;
19149;SDS011;9707;49.158;8.632;2023-02-15T13:13:24;17.92;;;12.63;;
19149;SDS011;9707;49.158;8.632;2023-02-15T13:15:53;17.75;;;12.90;;
19149;SDS011;9707;49.158;8.632;2023-02-15T13:18:31;19.08;;;13.27;;
19149;SDS011;9707;49.158;8.632;2023-02-15T13:21:33;18.90;;;13.45;;
19149;SDS011;9707;49.158;8.632;2023-02-15T13:23:56;21.42;;;14.07;;
19149;SDS011;9707;49.158;8.632;2023-02-15T13:26:30;18.95;;;13.45;;
19149;SDS011;9707;49.158;8.632;2023-02-15T13:28:58;20.58;;;14.50;;
19149;SDS011;9707;49.158;8.632;2023-02-15T13:31:30;20.40;;;14.95;;
19149;SDS011;9707;49.158;8.632;2023-02-15T13:39:14;18.73;;;14.02;;
19149;SDS011;9707;49.158;8.632;2023-02-15T13:47:31;23.73;;;15.38;;
19149;SDS011;9707;49.158;8.632;2023-02-15T13:52:30;21.50;;;15.25;;
19149;SDS011;9707;49.158;8.632;2023-02-15T13:55:09;24.02;;;16.15;;
19149;SDS011;9707;49.158;8.632;2023-02-15T14:06:55;20.85;;;15.18;;
19149;SDS011;9707;49.158;8.632;2023-02-15T14:23:57;22.13;;;14.23;;
19149;SDS011;9707;49.158;8.632;2023-02-15T14:29:43;18.95;;;13.82;;
19149;SDS011;9707;49.158;8.632;2023-02-15T14:32:12;18.73;;;14.10;;
19149;SDS011;9707;49.158;8.632;2023-02-15T14:34:57;20.48;;;15.13;;
19149;SDS011;9707;49.158;8.632;2023-02-15T14:37:31;22.27;;;15.27;;
19149;SDS011;9707;49.158;8.632;2023-02-15T14:43:12;20.90;;;15.43;;
19149;SDS011;9707;49.158;8.632;2023-02-15T14:48:48;19.35;;;14.65;;
19149;SDS011;9707;49.158;8.632;2023-02-15T14:54:39;22.98;;;15.65;;
19149;SDS011;9707;49.158;8.632;2023-02-15T14:59:26;21.10;;;15.52;;
19149;SDS011;9707;49.158;8.632;2023-02-15T15:02:25;23.60;;;15.60;;
19149;SDS011;9707;49.158;8.632;2023-02-15T15:05:16;24.65;;;15.48;;
19149;SDS011;9707;49.158;8.632;2023-02-15T15:07:48;21.75;;;15.27;;
19149;SDS011;9707;49.158;8.632;2023-02-15T15:12:42;23.55;;;15.23;;
19149;SDS011;9707;49.158;8.632;2023-02-15T15:15:12;17.20;;;13.10;;
19149;SDS011;9707;49.158;8.632;2023-02-15T15:17:55;23.83;;;15.50;;
19149;SDS011;9707;49.158;8.632;2023-02-15T15:23:33;20.15;;;14.68;;
19149;SDS011;9707;49.158;8.632;2023-02-15T15:31:15;22.02;;;15.13;;
19149;SDS011;9707;49.158;8.632;2023-02-15T15:41:40;21.20;;;14.73;;
19149;SDS011;9707;49.158;8.632;2023-02-15T15:50:13;21.83;;;14.38;;
19149;SDS011;9707;49.158;8.632;2023-02-15T15:52:41;20.92;;;14.70;;
19149;SDS011;9707;49.158;8.632;2023-02-15T15:55:16;20.00;;;14.63;;
19149;SDS011;9707;49.158;8.632;2023-02-15T15:57:45;20.58;;;14.85;;
19149;SDS011;9707;49.158;8.632;2023-02-15T16:03:01;20.98;;;14.52;;
19149;SDS011;9707;49.158;8.632;2023-02-15T16:05:33;23.33;;;15.40;;
19149;SDS011;9707;49.158;8.632;2023-02-15T16:08:00;23.38;;;14.60;;
19149;SDS011;9707;49.158;8.632;2023-02-15T16:10:26;20.60;;;14.07;;
19149;SDS011;9707;49.158;8.632;2023-02-15T16:12:53;17.77;;;13.73;;
19149;SDS011;9707;49.158;8.632;2023-02-15T16:15:21;22.40;;;14.30;;
19149;SDS011;9707;49.158;8.632;2023-02-15T16:17:50;19.40;;;13.45;;
19149;SDS011;9707;49.158;8.632;2023-02-15T16:20:29;19.85;;;14.68;;
19149;SDS011;9707;49.158;8.632;2023-02-15T16:28:49;21.77;;;15.05;;
19149;SDS011;9707;49.158;8.632;2023-02-15T16:31:17;19.90;;;14.15;;
19149;SDS011;9707;49.158;8.632;2023-02-15T16:33:43;24.65;;;16.17;;
19149;SDS011;9707;49.158;8.632;2023-02-15T16:36:10;26.85;;;16.23;;
19149;SDS011;9707;49.158;8.632;2023-02-15T16:43:50;31.60;;;20.67;;
19149;SDS011;9707;49.158;8.632;2023-02-15T16:48:55;24.85;;;17.40;;
19149;SDS011;9707;49.158;8.632;2023-02-15T16:51:25;21.67;;;15.32;;
19149;SDS011;9707;49.158;8.632;2023-02-15T16:53:54;21.15;;;16.40;;
19149;SDS011;9707;49.158;8.632;2023-02-15T16:56:24;22.85;;;15.32;;
19149;SDS011;9707;49.158;8.632;2023-02-15T16:58:51;22.50;;;16.38;;
19149;SDS011;9707;49.158;8.632;2023-02-15T17:01:20;22.10;;;15.25;;
19149;SDS011;9707;49.158;8.632;2023-02-15T17:03:49;18.95;;;13.65;;
19149;SDS011;9707;49.158;8.632;2023-02-15T17:06:25;21.48;;;13.68;;
19149;SDS011;9707;49.158;8.632;2023-02-15T17:08:52;17.65;;;13.77;;
19149;SDS011;9707;49.158;8.632;2023-02-15T17:11:35;23.13;;;15.05;;
19149;SDS011;9707;49.158;8.632;2023-02-15T17:16:34;20.85;;;15.77;;
19149;SDS011;9707;49.158;8.632;2023-02-15T17:19:01;20.80;;;14.27;;
19149;SDS011;9707;49.158;8.632;2023-02-15T17:21:33;23.90;;;14.27;;
19149;SDS011;9707;49.158;8.632;2023-02-15T17:24:06;24.50;;;15.38;;
19149;SDS011;9707;49.158;8.632;2023-02-15T17:26:48;21.23;;;14.55;;
19149;SDS011;9707;49.158;8.632;2023-02-15T17:29:33;20.17;;;15.27;;
19149;SDS011;9707;49.158;8.632;2023-02-15T17:32:02;20.40;;;14.70;;
19149;SDS011;9707;49.158;8.632;2023-02-15T17:39:59;18.85;;;14.32;;
19149;SDS011;9707;49.158;8.632;2023-02-15T17:42:25;20.80;;;13.85;;
19149;SDS011;9707;49.158;8.632;2023-02-15T17:44:51;19.27;;;14.00;;
19149;SDS011;9707;49.158;8.632;2023-02-15T17:47:18;21.38;;;13.05;;
19149;SDS011;9707;49.158;8.632;2023-02-15T17:49:45;17.45;;;12.93;;
19149;SDS011;9707;49.158;8.632;2023-02-15T17:52:13;22.63;;;12.95;;
19149;SDS011;9707;49.158;8.632;2023-02-15T17:54:39;17.48;;;13.20;;
19149;SDS011;9707;49.158;8.632;2023-02-15T17:57:25;18.58;;;13.30;;
19149;SDS011;9707;49.158;8.632;2023-02-15T17:59:52;21.67;;;13.70;;
19149;SDS011;9707;49.158;8.632;2023-02-15T18:02:36;18.67;;;12.98;;
19149;SDS011;9707;49.158;8.632;2023-02-15T18:05:20;16.02;;;12.35;;
19149;SDS011;9707;49.158;8.632;2023-02-15T18:08:08;19.77;;;12.88;;
19149;SDS011;9707;49.158;8.632;2023-02-15T18:10:54;17.40;;;12.32;;
19149;SDS011;9707;49.158;8.632;2023-02-15T18:13:38;18.95;;;13.68;;
19149;SDS011;9707;49.158;8.632;2023-02-15T18:16:03;22.70;;;14.30;;
19149;SDS011;9707;49.158;8.632;2023-02-15T18:18:29;19.25;;;13.98;;
19149;SDS011;9707;49.158;8.632;2023-02-15T18:20:57;21.35;;;13.43;;
19149;SDS011;9707;49.158;8.632;2023-02-15T18:23:22;26.40;;;14.13;;
19149;SDS011;9707;49.158;8.632;2023-02-15T18:25:47;18.55;;;13.98;;
19149;SDS011;9707;49.158;8.632;2023-02-15T18:28:13;20.58;;;14.23;;
19149;SDS011;9707;49.158;8.632;2023-02-15T18:30:39;22.38;;;15.20;;